EDT,Max TemperatureF,Mean TemperatureF,Min TemperatureF,Max Dew PointF,MeanDew PointF,Min DewpointF,Max Humidity, Mean Humidity, Min Humidity, Max Sea Level PressureIn, Mean Sea Level PressureIn, Min Sea Level PressureIn, Max VisibilityMiles, Mean VisibilityMiles, Min VisibilityMiles, Max Wind SpeedMPH, Mean Wind SpeedMPH, Max Gust SpeedMPH,PrecipitationIn, CloudCover, Events, WindDirDegrees
2013-3-1,30,26,22,28,23,18,92,84,75,29.94,29.81,29.69,10,7,2,15,8,21,T,8,Snow,305
2013-3-2,24,22,20,19,17,16,92,83,74,29.92,29.87,29.81,10,5,1,13,8,17,0.01,8,Snow,299
2013-3-3,24,22,19,18,15,11,91,82,73,29.95,29.86,29.78,10,5,2,20,11,25,T,8,Snow,289
2013-3-4,27,21,15,16,14,10,84,71,57,30.09,29.99,29.87,10,6,0,20,11,26,T,6,Fog-Snow,291
2013-3-5,38,27,16,21,18,13,92,70,48,30.09,29.96,29.78,10,10,10,17,8,25,0.00,3,,71
2013-3-6,37,34,31,26,23,21,75,66,56,30.09,29.93,29.73,10,10,10,18,10,28,0.00,7,,50
2013-3-7,36,33,30,30,28,26,89,80,70,30.24,30.16,30.09,10,7,0,16,8,23,0.01,8,Fog-Snow,315
2013-3-8,38,32,26,27,22,19,85,69,52,30.38,30.28,30.17,10,9,2,21,10,28,T,5,Snow,333
2013-3-9,51,36,21,25,21,19,92,60,28,30.41,30.32,30.22,10,10,10,10,3,14,0.00,0,,104
2013-3-10,60,50,39,25,22,18,44,34,24,30.21,30.12,30.04,10,10,10,18,10,25,0.00,2,,135
2013-3-11,54,50,45,46,28,22,80,58,35,30.05,29.89,29.73,10,10,5,21,12,31,0.12,5,Rain,139
2013-3-12,48,40,32,47,34,25,100,85,70,29.95,29.82,29.73,10,7,2,17,12,24,0.28,8,Rain-Snow,254
2013-3-13,33,28,22,27,22,14,92,75,57,30.03,29.90,29.83,10,5,0,28,12,37,0.01,8,Fog-Snow,261
2013-3-14,32,26,19,19,14,11,92,68,43,30.13,30.07,29.95,10,8,0,24,14,32,T,5,Fog-Snow,284
2013-3-15,39,29,18,30,25,13,92,76,59,30.09,29.88,29.76,10,7,1,20,11,31,T,7,Snow,275
2013-3-16,31,28,24,30,27,24,100,93,85,29.95,29.74,29.63,10,3,0,12,6,15,0.31,8,Fog-Snow,69
2013-3-17,29,24,19,23,18,15,92,75,58,30.24,30.10,29.89,10,9,2,14,4,18,T,6,,322
2013-3-18,31,25,18,29,22,14,92,80,68,30.22,29.94,29.71,10,4,0,24,15,35,0.18,7,Fog-Rain-Snow,124
2013-3-19,36,30,24,32,25,16,100,81,61,29.89,29.75,29.66,10,5,0,33,16,44,0.03,8,Fog-Rain-Snow,243
2013-3-20,29,25,20,23,16,12,88,71,53,29.92,29.84,29.76,10,7,0,25,12,31,T,8,Snow,267
2013-3-21,22,19,15,19,13,7,92,74,56,29.86,29.76,29.71,10,4,0,20,12,26,0.02,8,Fog-Snow,264
2013-3-22,25,23,21,21,19,17,92,83,74,30.00,29.83,29.74,10,3,1,20,11,30,T,8,Snow,272
2013-3-23,31,27,22,20,18,16,92,75,58,30.04,30.00,29.92,10,10,9,15,7,18,0.00,6,,283
2013-3-24,38,28,18,19,17,16,91,66,40,30.01,29.83,29.58,10,10,10,17,7,24,0.00,3,,72
2013-3-25,33,31,28,29,27,19,92,74,56,29.72,29.54,29.47,10,2,0,16,7,23,0.16,8,Fog-Snow,91
2013-3-26,41,33,25,28,26,19,92,68,44,30.01,29.85,29.67,10,9,1,21,9,29,T,7,Snow,296
2013-3-27,35,32,29,28,25,23,92,76,59,30.12,30.04,29.95,10,8,2,18,12,25,T,8,Snow,279
2013-3-28,36,33,29,30,28,25,92,81,70,30.25,30.12,30.01,10,7,1,16,9,21,T,8,Snow,287
2013-3-29,44,38,31,28,25,20,92,68,43,30.25,30.21,30.16,10,10,10,16,6,22,0.00,6,,279
2013-3-30,48,37,25,22,18,16,75,52,29,30.24,30.16,30.06,10,10,10,12,4,15,0.00,0,,253
2013-3-31,46,41,35,41,35,17,96,68,40,30.04,29.77,29.68,10,7,2,17,7,22,T,6,Rain,188